createdAt,value
2023-01-19T00:01:00.728Z,17.97
2023-01-19T00:03:27.887Z,18.63
2023-01-19T00:05:55.163Z,18.63
2023-01-19T00:08:22.410Z,17.70
2023-01-19T00:10:53.322Z,17.40
2023-01-19T00:13:20.557Z,16.77
2023-01-19T00:15:50.860Z,18.73
2023-01-19T00:18:18.122Z,17.33
2023-01-19T00:20:48.414Z,16.17
2023-01-19T00:23:16.374Z,17.77
2023-01-19T00:25:43.817Z,17.70
2023-01-19T00:28:12.190Z,17.20
2023-01-19T00:30:40.156Z,18.57
2023-01-19T00:33:08.945Z,16.57
2023-01-19T00:35:36.594Z,18.93
2023-01-19T00:38:04.059Z,18.70
2023-01-19T00:40:31.419Z,18.67
2023-01-19T00:43:00.245Z,18.07
2023-01-19T00:45:27.603Z,18.93
2023-01-19T00:47:57.275Z,18.40
2023-01-19T00:50:25.366Z,17.90
2023-01-19T00:52:53.555Z,17.67
2023-01-19T00:55:23.853Z,16.10
2023-01-19T00:57:51.068Z,17.97
2023-01-19T01:00:19.901Z,16.53
2023-01-19T01:02:47.680Z,17.10
2023-01-19T01:05:15.066Z,16.03
2023-01-19T01:07:44.558Z,17.20
2023-01-19T01:10:12.938Z,15.70
2023-01-19T01:12:41.310Z,15.40
2023-01-19T01:15:22.917Z,15.83
2023-01-19T01:17:53.112Z,15.43
2023-01-19T01:20:21.629Z,14.63
2023-01-19T01:22:50.202Z,14.97
2023-01-19T01:25:18.737Z,15.40
2023-01-19T01:27:46.350Z,15.17
2023-01-19T01:30:14.991Z,14.50
2023-01-19T01:32:42.740Z,14.77
2023-01-19T01:35:10.205Z,14.90
2023-01-19T01:37:37.914Z,14.47
2023-01-19T01:40:05.770Z,14.00
2023-01-19T01:42:33.658Z,14.97
2023-01-19T01:45:02.186Z,14.03
2023-01-19T01:47:32.149Z,13.23
2023-01-19T01:50:22.365Z,13.33
2023-01-19T01:53:07.135Z,14.10
2023-01-19T01:55:36.658Z,13.43
2023-01-19T01:58:04.618Z,13.30
2023-01-19T02:00:51.999Z,13.17
2023-01-19T02:03:19.403Z,13.60
2023-01-19T02:05:46.789Z,13.63
2023-01-19T02:08:35.372Z,12.80
2023-01-19T02:11:21.995Z,13.33
2023-01-19T02:13:49.637Z,13.27
2023-01-19T02:16:17.614Z,14.10
2023-01-19T02:18:45.333Z,12.10
2023-01-19T02:21:20.097Z,12.97
2023-01-19T02:23:54.220Z,12.80
2023-01-19T02:26:21.402Z,12.27
2023-01-19T02:28:54.327Z,12.73
2023-01-19T02:31:21.762Z,12.83
2023-01-19T02:33:49.103Z,12.53
2023-01-19T02:36:17.341Z,14.03
2023-01-19T02:38:45.999Z,13.60
2023-01-19T02:41:16.014Z,15.60
2023-01-19T02:43:43.579Z,15.00
2023-01-19T02:46:10.889Z,13.20
2023-01-19T02:48:38.056Z,12.90
2023-01-19T02:51:11.849Z,12.37
2023-01-19T02:53:40.144Z,13.07
2023-01-19T02:56:24.831Z,13.13
2023-01-19T02:58:51.972Z,12.77
2023-01-19T03:01:28.279Z,13.30
2023-01-19T03:03:59.306Z,13.07
2023-01-19T03:06:33.673Z,12.03
2023-01-19T03:09:11.534Z,12.93
2023-01-19T03:11:40.503Z,12.23
2023-01-19T03:14:13.046Z,12.73
2023-01-19T03:16:43.314Z,13.23
2023-01-19T03:19:10.464Z,13.57
2023-01-19T03:21:39.177Z,13.50
2023-01-19T03:24:07.923Z,13.87
2023-01-19T03:26:44.072Z,13.60
2023-01-19T03:29:12.975Z,14.67
2023-01-19T03:31:41.400Z,14.63
2023-01-19T03:34:10.040Z,13.80
2023-01-19T03:36:38.929Z,15.10
2023-01-19T03:39:07.602Z,14.77
2023-01-19T03:41:35.300Z,14.93
2023-01-19T03:44:03.521Z,14.90
2023-01-19T03:46:31.330Z,14.93
2023-01-19T03:48:58.849Z,14.87
2023-01-19T03:51:26.266Z,15.20
2023-01-19T03:53:53.549Z,14.07
2023-01-19T03:56:22.256Z,14.23
2023-01-19T03:58:49.483Z,14.67
2023-01-19T04:01:17.698Z,14.87
2023-01-19T04:03:45.162Z,14.83
2023-01-19T04:06:12.306Z,15.87
2023-01-19T04:08:40.715Z,13.80
2023-01-19T04:11:08.335Z,14.10
2023-01-19T04:13:35.585Z,13.53
2023-01-19T04:16:03.659Z,14.43
2023-01-19T04:18:33.691Z,14.47
2023-01-19T04:21:05.594Z,14.10
2023-01-19T04:23:33.740Z,14.47
2023-01-19T04:26:01.736Z,14.03
2023-01-19T04:28:28.910Z,12.93
2023-01-19T04:30:56.214Z,15.10
2023-01-19T04:33:23.466Z,14.30
2023-01-19T04:35:53.476Z,15.80
2023-01-19T04:38:21.500Z,14.03
2023-01-19T04:40:50.517Z,14.00
2023-01-19T04:43:17.706Z,14.93
2023-01-19T04:45:44.884Z,14.57
2023-01-19T04:48:12.557Z,14.63
2023-01-19T04:50:40.122Z,13.97
2023-01-19T04:53:07.280Z,13.87
2023-01-19T04:55:34.735Z,13.13
2023-01-19T04:58:01.945Z,13.50
2023-01-19T05:00:29.176Z,12.97
2023-01-19T05:02:56.461Z,13.13
2023-01-19T05:05:24.118Z,13.20
2023-01-19T05:07:51.297Z,11.73
2023-01-19T05:10:18.640Z,11.40
2023-01-19T05:12:46.211Z,12.13
2023-01-19T05:15:13.555Z,12.53
2023-01-19T05:17:40.818Z,11.53
2023-01-19T05:20:08.480Z,11.17
2023-01-19T05:22:35.789Z,11.07
2023-01-19T05:25:02.985Z,12.13
2023-01-19T05:27:30.156Z,11.13
2023-01-19T05:29:57.400Z,11.53
2023-01-19T05:32:24.626Z,11.40
2023-01-19T05:34:51.791Z,12.33
2023-01-19T05:37:19.285Z,13.37
2023-01-19T05:39:46.473Z,12.90
2023-01-19T05:42:13.735Z,11.70
2023-01-19T05:44:40.952Z,11.73
2023-01-19T05:47:08.206Z,12.33
2023-01-19T05:49:35.939Z,12.40
2023-01-19T05:52:03.481Z,11.27
2023-01-19T05:54:30.687Z,10.20
2023-01-19T05:56:58.299Z,9.83
2023-01-19T05:59:25.587Z,10.73
2023-01-19T06:01:53.749Z,13.60
2023-01-19T06:04:21.488Z,11.97
2023-01-19T06:06:49.160Z,10.20
2023-01-19T06:09:17.352Z,10.80
2023-01-19T06:11:46.347Z,11.60
2023-01-19T06:14:13.673Z,11.07
2023-01-19T06:16:40.980Z,10.43
2023-01-19T06:19:08.155Z,10.63
2023-01-19T06:21:35.477Z,10.40
2023-01-19T06:24:03.540Z,10.83
2023-01-19T06:26:30.748Z,11.33
2023-01-19T06:28:58.161Z,11.10
2023-01-19T06:31:25.425Z,12.10
2023-01-19T06:33:52.662Z,11.63
2023-01-19T06:36:19.874Z,12.17
2023-01-19T06:38:47.016Z,10.20
2023-01-19T06:41:14.415Z,10.00
2023-01-19T06:43:41.593Z,9.57
2023-01-19T06:46:08.866Z,11.70
2023-01-19T06:48:36.072Z,10.73
2023-01-19T06:51:03.231Z,13.10
2023-01-19T06:53:30.456Z,13.83
2023-01-19T06:56:01.977Z,14.30
2023-01-19T06:58:30.633Z,15.43
2023-01-19T07:01:02.471Z,19.20
2023-01-19T07:03:29.958Z,23.33
2023-01-19T07:05:57.154Z,21.27
2023-01-19T07:08:24.684Z,19.33
2023-01-19T07:11:23.584Z,14.77
2023-01-19T07:13:40.035Z,14.30
2023-01-19T07:16:08.255Z,14.03
2023-01-19T07:18:35.775Z,13.90
2023-01-19T07:21:03.041Z,11.77
2023-01-19T07:23:30.369Z,9.57
2023-01-19T07:26:01.771Z,10.37
2023-01-19T07:28:29.681Z,10.00
2023-01-19T07:30:57.837Z,10.67
2023-01-19T07:33:26.186Z,11.70
2023-01-19T07:35:53.767Z,11.77
2023-01-19T07:38:21.208Z,13.03
2023-01-19T07:40:48.538Z,14.50
2023-01-19T07:43:16.508Z,14.97
2023-01-19T07:45:45.066Z,13.23
2023-01-19T07:48:12.388Z,13.70
2023-01-19T07:50:39.642Z,13.37
2023-01-19T07:53:07.935Z,13.13
2023-01-19T07:55:35.321Z,12.93
2023-01-19T07:58:06.526Z,12.70
2023-01-19T08:00:34.236Z,11.53
2023-01-19T08:03:02.274Z,11.67
2023-01-19T08:05:29.971Z,11.10
2023-01-19T08:07:57.921Z,11.10
2023-01-19T08:10:26.744Z,9.83
2023-01-19T08:12:54.610Z,9.80
2023-01-19T08:15:25.393Z,10.60
2023-01-19T08:17:59.196Z,9.50
2023-01-19T08:20:27.120Z,9.83
2023-01-19T08:23:01.418Z,10.53
2023-01-19T08:25:45.114Z,10.23
2023-01-19T08:28:16.775Z,10.37
2023-01-19T08:30:45.048Z,10.03
2023-01-19T08:33:13.174Z,11.37
2023-01-19T08:35:41.534Z,11.17
2023-01-19T08:38:09.931Z,11.20
2023-01-19T08:40:38.528Z,11.30
2023-01-19T08:43:07.921Z,10.80
2023-01-19T08:45:36.032Z,12.13
2023-01-19T08:48:03.659Z,11.67
2023-01-19T08:50:32.112Z,11.73
2023-01-19T08:53:00.453Z,14.50
2023-01-19T08:55:28.450Z,14.73
2023-01-19T08:57:58.009Z,13.17
2023-01-19T09:00:25.503Z,11.93
2023-01-19T09:02:52.723Z,12.30
2023-01-19T09:05:20.253Z,11.53
2023-01-19T09:07:51.797Z,12.20
2023-01-19T09:10:19.435Z,12.33
2023-01-19T09:12:46.821Z,13.13
2023-01-19T09:15:14.333Z,13.13
2023-01-19T09:17:44.339Z,11.77
2023-01-19T09:20:11.696Z,12.03
2023-01-19T09:22:39.659Z,12.87
2023-01-19T09:25:08.138Z,12.07
2023-01-19T09:27:35.421Z,13.00
2023-01-19T09:30:02.826Z,12.67
2023-01-19T09:32:30.046Z,12.60
2023-01-19T09:34:57.562Z,13.20
2023-01-19T09:37:24.725Z,13.27
2023-01-19T09:39:52.034Z,12.93
2023-01-19T09:42:22.512Z,13.73
2023-01-19T09:44:53.220Z,13.90
2023-01-19T09:47:24.006Z,14.37
2023-01-19T09:50:02.051Z,14.93
2023-01-19T09:52:29.981Z,14.27
2023-01-19T09:54:58.583Z,14.43
2023-01-19T09:57:27.389Z,14.60
2023-01-19T09:59:59.529Z,14.77
2023-01-19T10:02:59.363Z,15.77
2023-01-19T10:05:26.741Z,14.23
2023-01-19T10:07:58.210Z,15.13
2023-01-19T10:10:27.228Z,14.67
2023-01-19T10:12:54.397Z,16.33
2023-01-19T10:15:33.611Z,16.83
2023-01-19T10:18:06.819Z,17.27
2023-01-19T10:20:37.709Z,17.70
2023-01-19T10:23:06.518Z,17.07
2023-01-19T10:25:34.091Z,16.43
2023-01-19T10:28:01.737Z,16.10
2023-01-19T10:30:30.468Z,15.67
2023-01-19T10:32:57.749Z,15.50
2023-01-19T10:35:25.498Z,15.33
2023-01-19T10:38:02.826Z,14.63
2023-01-19T10:40:50.700Z,14.83
2023-01-19T10:43:36.815Z,14.33
2023-01-19T10:46:08.141Z,14.67
2023-01-19T10:48:42.555Z,14.53
2023-01-19T10:51:11.067Z,14.70
2023-01-19T10:53:38.800Z,14.50
2023-01-19T10:56:13.164Z,16.20
2023-01-19T10:58:40.632Z,15.73
2023-01-19T11:01:18.866Z,15.47
2023-01-19T11:03:46.159Z,17.03
2023-01-19T11:06:16.076Z,17.00
2023-01-19T11:08:44.381Z,16.47
2023-01-19T11:11:14.895Z,16.70
2023-01-19T11:13:43.001Z,15.87
2023-01-19T11:16:25.532Z,17.20
2023-01-19T11:18:53.396Z,16.50
2023-01-19T11:21:24.748Z,16.87
2023-01-19T11:23:54.706Z,14.83
2023-01-19T11:26:33.766Z,15.50
2023-01-19T11:29:02.823Z,15.13
2023-01-19T11:31:32.844Z,16.97
2023-01-19T11:34:01.430Z,16.70
2023-01-19T11:36:30.276Z,16.57
2023-01-19T11:39:04.061Z,17.37
2023-01-19T11:41:33.070Z,16.53
2023-01-19T11:44:19.011Z,17.93
2023-01-19T11:46:49.976Z,16.93
2023-01-19T11:49:30.518Z,17.77
2023-01-19T11:52:05.039Z,15.67
2023-01-19T11:54:46.383Z,16.30
2023-01-19T11:57:16.008Z,18.40
2023-01-19T11:59:43.411Z,17.17
2023-01-19T12:02:19.856Z,19.10
2023-01-19T12:04:48.085Z,18.27
2023-01-19T12:07:18.946Z,16.43
2023-01-19T12:09:48.325Z,17.73
2023-01-19T12:12:21.804Z,17.57
2023-01-19T12:15:01.140Z,17.77
2023-01-19T12:17:35.900Z,17.17
2023-01-19T12:20:21.806Z,18.37
2023-01-19T12:22:56.550Z,18.00
2023-01-19T12:25:26.931Z,18.50
2023-01-19T12:27:54.546Z,16.87
2023-01-19T12:30:26.471Z,17.10
2023-01-19T12:33:13.724Z,19.07
2023-01-19T12:35:56.995Z,19.00
2023-01-19T12:38:34.315Z,17.20
2023-01-19T12:41:24.796Z,18.87
2023-01-19T12:44:19.128Z,18.70
2023-01-19T12:46:47.018Z,19.17
2023-01-19T12:49:20.605Z,18.83
2023-01-19T12:51:48.632Z,19.43
2023-01-19T12:54:32.677Z,21.60
2023-01-19T12:57:02.379Z,21.77
2023-01-19T12:59:31.466Z,22.23
2023-01-19T13:02:17.629Z,21.53
2023-01-19T13:05:03.492Z,21.73
2023-01-19T13:07:30.712Z,21.33
2023-01-19T13:09:57.911Z,23.20
2023-01-19T13:12:25.701Z,22.43
2023-01-19T13:15:12.881Z,22.70
2023-01-19T13:17:50.030Z,23.80
2023-01-19T13:20:24.562Z,26.57
2023-01-19T13:22:53.111Z,35.60
2023-01-19T13:25:31.358Z,30.23
2023-01-19T13:27:58.624Z,24.10
2023-01-19T13:30:27.384Z,23.37
2023-01-19T13:32:59.965Z,23.13
2023-01-19T13:35:27.207Z,27.37
2023-01-19T13:37:55.693Z,29.60
2023-01-19T13:40:24.954Z,27.40
2023-01-19T13:42:53.653Z,23.47
2023-01-19T13:45:37.179Z,23.17
2023-01-19T13:48:08.324Z,22.03
2023-01-19T13:50:38.608Z,25.77
2023-01-19T13:53:19.269Z,28.37
2023-01-19T13:55:47.988Z,36.77
2023-01-19T13:58:22.402Z,30.90
2023-01-19T14:00:49.686Z,23.90
2023-01-19T14:03:18.491Z,23.37
2023-01-19T14:05:46.103Z,23.77
2023-01-19T14:08:15.075Z,25.00
2023-01-19T14:10:48.571Z,30.00
2023-01-19T14:13:17.326Z,29.50
2023-01-19T14:15:45.391Z,28.37
2023-01-19T14:18:18.871Z,28.07
2023-01-19T14:21:12.343Z,29.30
2023-01-19T14:23:39.575Z,30.37
2023-01-19T14:26:07.610Z,30.83
2023-01-19T14:28:44.087Z,31.97
2023-01-19T14:31:28.597Z,31.93
2023-01-19T14:33:58.598Z,35.13
2023-01-19T14:36:25.941Z,37.93
2023-01-19T14:38:54.042Z,39.43
2023-01-19T14:41:30.743Z,41.73
2023-01-19T14:43:58.807Z,42.17
2023-01-19T14:46:26.804Z,39.53
2023-01-19T14:48:56.468Z,43.23
2023-01-19T14:51:24.947Z,56.57
2023-01-19T14:53:53.526Z,52.87
2023-01-19T14:56:28.412Z,51.97
2023-01-19T14:59:00.164Z,43.97
2023-01-19T15:01:28.635Z,42.00
2023-01-19T15:03:56.977Z,38.30
2023-01-19T15:06:24.967Z,37.67
2023-01-19T15:08:53.545Z,37.07
2023-01-19T15:11:36.176Z,36.40
2023-01-19T15:14:03.481Z,44.30
2023-01-19T15:16:32.918Z,42.80
2023-01-19T15:19:00.830Z,40.33
2023-01-19T15:21:28.096Z,43.47
2023-01-19T15:23:55.741Z,44.23
2023-01-19T15:26:24.327Z,53.37
2023-01-19T15:28:51.570Z,54.83
2023-01-19T15:31:20.605Z,49.90
2023-01-19T15:33:48.135Z,46.40
2023-01-19T15:36:18.053Z,47.33
2023-01-19T15:38:45.532Z,48.67
2023-01-19T15:41:12.781Z,51.60
2023-01-19T15:43:40.004Z,52.43
2023-01-19T15:46:07.546Z,54.30
2023-01-19T15:48:34.939Z,54.80
2023-01-19T15:51:02.093Z,52.83
2023-01-19T15:53:30.537Z,52.77
2023-01-19T15:55:57.873Z,52.63
2023-01-19T15:58:25.395Z,56.30
2023-01-19T16:00:57.132Z,60.33
2023-01-19T16:03:24.741Z,63.07
2023-01-19T16:05:52.101Z,51.97
2023-01-19T16:08:19.499Z,56.10
2023-01-19T16:10:46.770Z,60.43
2023-01-19T16:13:13.966Z,93.03
2023-01-19T16:15:42.458Z,70.00
2023-01-19T16:18:09.767Z,75.97
2023-01-19T16:20:37.006Z,74.87
2023-01-19T16:23:19.848Z,68.67
2023-01-19T16:25:56.270Z,80.97
2023-01-19T16:28:23.696Z,87.50
2023-01-19T16:30:51.758Z,106.23
2023-01-19T16:33:19.217Z,110.13
2023-01-19T16:35:46.577Z,93.50
2023-01-19T16:38:13.754Z,85.77
2023-01-19T16:40:40.952Z,85.17
2023-01-19T16:43:08.314Z,128.57
2023-01-19T16:45:35.564Z,131.90
2023-01-19T16:48:02.808Z,122.17
2023-01-19T16:50:29.974Z,116.93
2023-01-19T16:52:58.078Z,114.70
2023-01-19T16:55:25.321Z,104.17
2023-01-19T16:57:52.586Z,78.93
2023-01-19T17:00:19.950Z,94.77
2023-01-19T17:02:47.318Z,80.37
2023-01-19T17:05:14.630Z,66.23
2023-01-19T17:07:41.974Z,59.20
2023-01-19T17:10:10.003Z,60.03
2023-01-19T17:12:37.430Z,60.97
2023-01-19T17:15:04.798Z,61.73
2023-01-19T17:17:32.133Z,63.00
2023-01-19T17:20:00.266Z,59.13
2023-01-19T17:22:27.419Z,65.70
2023-01-19T17:24:54.671Z,62.00
2023-01-19T17:27:21.871Z,59.30
2023-01-19T17:29:50.137Z,58.00
2023-01-19T17:32:17.361Z,58.07
2023-01-19T17:34:46.675Z,56.30
2023-01-19T17:37:13.992Z,54.00
2023-01-19T17:39:41.206Z,52.63
2023-01-19T17:42:08.444Z,49.10
2023-01-19T17:44:35.626Z,59.30
2023-01-19T17:47:03.114Z,65.30
2023-01-19T17:49:30.333Z,66.23
2023-01-19T17:51:57.528Z,74.83
2023-01-19T17:54:24.719Z,71.00
2023-01-19T17:56:52.010Z,59.97
2023-01-19T17:59:19.292Z,59.00
2023-01-19T18:01:46.790Z,53.83
2023-01-19T18:04:14.042Z,52.80
2023-01-19T18:06:41.270Z,57.57
2023-01-19T18:09:08.529Z,55.50
2023-01-19T18:11:36.258Z,55.77
2023-01-19T18:14:03.537Z,55.60
2023-01-19T18:16:31.028Z,54.97
2023-01-19T18:18:58.663Z,57.20
2023-01-19T18:21:30.521Z,58.93
2023-01-19T18:24:02.212Z,61.10
2023-01-19T18:26:30.028Z,62.70
2023-01-19T18:28:57.751Z,82.20
2023-01-19T18:31:25.484Z,83.37
2023-01-19T18:33:53.107Z,79.23
2023-01-19T18:36:20.416Z,74.53
2023-01-19T18:38:48.119Z,93.43
2023-01-19T18:41:16.234Z,132.67
2023-01-19T18:43:43.497Z,135.70
2023-01-19T18:46:11.487Z,137.03
2023-01-19T18:48:39.352Z,175.20
2023-01-19T18:51:10.523Z,221.77
2023-01-19T18:53:37.956Z,233.50
2023-01-19T18:56:05.909Z,176.10
2023-01-19T18:58:33.677Z,99.77
2023-01-19T19:01:01.827Z,63.93
2023-01-19T19:03:29.528Z,47.07
2023-01-19T19:05:57.080Z,43.43
2023-01-19T19:08:24.383Z,35.07
2023-01-19T19:10:51.809Z,33.73
2023-01-19T19:13:21.806Z,27.80
2023-01-19T19:15:49.122Z,29.03
2023-01-19T19:18:16.572Z,29.53
2023-01-19T19:20:43.916Z,30.80
2023-01-19T19:23:11.632Z,31.87
2023-01-19T19:25:38.892Z,32.60
2023-01-19T19:28:06.493Z,27.60
2023-01-19T19:30:35.682Z,24.37
2023-01-19T19:33:02.986Z,23.03
2023-01-19T19:35:30.552Z,25.67
2023-01-19T19:37:58.029Z,24.80
2023-01-19T19:40:26.019Z,32.63
2023-01-19T19:42:53.440Z,37.27
2023-01-19T19:45:20.679Z,31.90
2023-01-19T19:47:47.976Z,32.70
2023-01-19T19:50:15.444Z,32.53
2023-01-19T19:52:43.173Z,38.47
2023-01-19T19:55:11.749Z,36.77
2023-01-19T19:57:39.544Z,30.07
2023-01-19T20:00:07.473Z,28.40
2023-01-19T20:02:34.973Z,27.40
2023-01-19T20:05:02.487Z,26.40
2023-01-19T20:07:30.055Z,29.10
2023-01-19T20:09:57.495Z,28.07
2023-01-19T20:12:24.866Z,27.83
2023-01-19T20:14:52.125Z,27.03
2023-01-19T20:17:20.848Z,34.63
2023-01-19T20:19:49.060Z,35.47
2023-01-19T20:22:16.547Z,39.60
2023-01-19T20:24:43.773Z,36.73
2023-01-19T20:27:11.365Z,46.17
2023-01-19T20:29:38.742Z,54.47
2023-01-19T20:32:06.078Z,51.17
2023-01-19T20:34:37.291Z,47.90
2023-01-19T20:37:06.225Z,53.70
2023-01-19T20:39:35.339Z,50.70
2023-01-19T20:42:02.592Z,48.80
2023-01-19T20:44:30.302Z,59.00
2023-01-19T20:46:57.606Z,66.67
2023-01-19T20:49:25.175Z,72.70
2023-01-19T20:51:52.455Z,64.70
2023-01-19T20:54:20.832Z,70.20
2023-01-19T20:56:48.471Z,74.97
2023-01-19T20:59:15.821Z,70.87
2023-01-19T21:01:43.912Z,69.80
2023-01-19T21:04:11.409Z,66.30
2023-01-19T21:06:38.948Z,67.30
2023-01-19T21:09:07.343Z,71.17
2023-01-19T21:11:34.638Z,73.40
2023-01-19T21:14:02.165Z,72.53
2023-01-19T21:16:31.460Z,69.43
2023-01-19T21:18:58.936Z,65.40
2023-01-19T21:21:31.154Z,63.23
2023-01-19T21:23:59.367Z,57.80
2023-01-19T21:26:29.725Z,56.20
2023-01-19T21:28:57.974Z,56.97
2023-01-19T21:31:27.573Z,58.00
2023-01-19T21:33:55.278Z,56.63
2023-01-19T21:36:22.779Z,60.53
2023-01-19T21:38:51.514Z,64.20
2023-01-19T21:41:18.962Z,64.63
2023-01-19T21:43:46.500Z,65.77
2023-01-19T21:46:29.054Z,63.77
2023-01-19T21:48:57.889Z,61.83
2023-01-19T21:51:25.151Z,62.87
2023-01-19T21:53:52.473Z,70.43
2023-01-19T21:56:19.707Z,73.93
2023-01-19T21:58:47.385Z,71.07
2023-01-19T22:01:15.083Z,71.70
2023-01-19T22:03:42.793Z,72.10
2023-01-19T22:06:11.178Z,60.60
2023-01-19T22:08:38.772Z,61.83
2023-01-19T22:11:07.186Z,62.40
2023-01-19T22:13:35.412Z,61.80
2023-01-19T22:16:08.797Z,60.87
2023-01-19T22:18:36.178Z,59.50
2023-01-19T22:21:10.917Z,60.30
2023-01-19T22:23:38.126Z,54.30
2023-01-19T22:26:05.912Z,57.10
2023-01-19T22:28:33.406Z,58.37
2023-01-19T22:31:07.956Z,60.30
2023-01-19T22:33:35.918Z,66.17
2023-01-19T22:36:16.719Z,65.63
2023-01-19T22:38:44.920Z,67.87
2023-01-19T22:41:17.073Z,65.97
2023-01-19T22:43:44.682Z,65.80
2023-01-19T22:46:12.004Z,62.93
2023-01-19T22:48:40.561Z,59.13
2023-01-19T22:51:08.030Z,56.67
2023-01-19T22:53:35.340Z,56.27
2023-01-19T22:56:10.769Z,51.93
2023-01-19T22:58:40.300Z,48.57
2023-01-19T23:01:08.589Z,45.60
2023-01-19T23:03:36.526Z,43.13
2023-01-19T23:06:04.977Z,43.23
2023-01-19T23:08:32.189Z,41.40
2023-01-19T23:10:59.378Z,41.57
2023-01-19T23:13:26.578Z,42.87
2023-01-19T23:15:53.835Z,42.97
2023-01-19T23:18:21.091Z,42.37
2023-01-19T23:20:48.287Z,44.93
2023-01-19T23:23:15.686Z,45.90
2023-01-19T23:25:42.902Z,46.17
2023-01-19T23:28:10.159Z,45.87
2023-01-19T23:30:37.439Z,45.90
2023-01-19T23:33:04.627Z,44.93
2023-01-19T23:35:31.800Z,44.10
2023-01-19T23:37:59.006Z,47.23
2023-01-19T23:40:26.153Z,48.13
2023-01-19T23:42:55.200Z,50.47
2023-01-19T23:45:22.384Z,51.37
2023-01-19T23:47:49.597Z,44.47
2023-01-19T23:50:16.891Z,43.37
2023-01-19T23:52:44.111Z,41.87
2023-01-19T23:55:11.742Z,39.77
2023-01-19T23:57:39.166Z,38.87
